createdAt,value
2023-04-20T00:00:35.278Z,3.47
2023-04-20T00:03:03.614Z,3.35
2023-04-20T00:05:32.111Z,3.29
2023-04-20T00:07:59.322Z,3.32
2023-04-20T00:10:26.383Z,3.47
2023-04-20T00:12:53.280Z,3.69
2023-04-20T00:15:20.537Z,3.47
2023-04-20T00:17:48.682Z,3.50
2023-04-20T00:20:15.651Z,3.53
2023-04-20T00:22:42.997Z,3.41
2023-04-20T00:25:10.146Z,3.51
2023-04-20T00:27:37.267Z,3.46
2023-04-20T00:30:04.601Z,3.41
2023-04-20T00:32:31.752Z,3.39
2023-04-20T00:34:58.821Z,3.50
2023-04-20T00:37:25.860Z,3.54
2023-04-20T00:39:52.953Z,3.44
2023-04-20T00:42:21.031Z,3.49
2023-04-20T00:44:47.959Z,3.65
2023-04-20T00:47:16.417Z,3.78
2023-04-20T00:49:43.428Z,3.86
2023-04-20T00:52:10.606Z,3.78
2023-04-20T00:54:37.859Z,3.71
2023-04-20T00:57:05.154Z,3.77
2023-04-20T00:59:33.095Z,3.79
2023-04-20T01:02:00.356Z,3.51
2023-04-20T01:04:27.803Z,3.75
2023-04-20T01:06:54.792Z,3.88
2023-04-20T01:09:21.849Z,3.65
2023-04-20T01:11:49.088Z,3.67
2023-04-20T01:14:15.969Z,3.80
2023-04-20T01:16:44.742Z,3.94
2023-04-20T01:19:11.986Z,4.04
2023-04-20T01:21:38.908Z,3.92
2023-04-20T01:24:07.077Z,4.11
2023-04-20T01:26:34.053Z,3.97
2023-04-20T01:29:00.965Z,3.54
2023-04-20T01:31:27.950Z,3.42
2023-04-20T01:33:54.868Z,3.28
2023-04-20T01:36:22.304Z,3.45
2023-04-20T01:38:49.685Z,3.54
2023-04-20T01:41:17.672Z,3.29
2023-04-20T01:43:44.776Z,3.44
2023-04-20T01:46:11.746Z,3.40
2023-04-20T01:48:38.643Z,3.28
2023-04-20T01:51:05.769Z,3.34
2023-04-20T01:53:32.777Z,3.30
2023-04-20T01:55:59.791Z,3.36
2023-04-20T01:58:26.725Z,3.31
2023-04-20T02:00:53.618Z,3.23
2023-04-20T02:03:21.724Z,3.14
2023-04-20T02:05:49.034Z,3.21
2023-04-20T02:08:15.977Z,3.25
2023-04-20T02:10:42.934Z,3.46
2023-04-20T02:13:09.988Z,3.58
2023-04-20T02:15:37.391Z,3.38
2023-04-20T02:18:04.710Z,3.54
2023-04-20T02:20:31.742Z,3.50
2023-04-20T02:22:58.699Z,3.59
2023-04-20T02:25:25.676Z,3.45
2023-04-20T02:27:52.671Z,3.31
2023-04-20T02:30:19.645Z,3.21
2023-04-20T02:32:46.582Z,3.13
2023-04-20T02:35:13.551Z,3.25
2023-04-20T02:37:40.701Z,3.09
2023-04-20T02:40:08.681Z,3.32
2023-04-20T02:42:35.876Z,3.36
2023-04-20T02:45:02.954Z,3.30
2023-04-20T02:47:30.085Z,3.32
2023-04-20T02:49:57.231Z,3.57
2023-04-20T02:52:24.216Z,3.68
2023-04-20T02:54:51.074Z,3.53
2023-04-20T02:57:18.143Z,3.26
2023-04-20T02:59:45.196Z,3.19
2023-04-20T03:02:12.386Z,3.16
2023-04-20T03:04:39.727Z,3.27
2023-04-20T03:07:07.291Z,3.03
2023-04-20T03:09:34.275Z,3.24
2023-04-20T03:12:02.593Z,3.48
2023-04-20T03:14:29.770Z,3.70
2023-04-20T03:16:57.162Z,3.83
2023-04-20T03:19:24.507Z,3.91
2023-04-20T03:21:51.382Z,4.16
2023-04-20T03:24:19.160Z,4.08
2023-04-20T03:26:46.142Z,3.95
2023-04-20T03:29:13.238Z,3.79
2023-04-20T03:31:40.328Z,3.74
2023-04-20T03:34:07.257Z,3.97
2023-04-20T03:36:34.312Z,4.12
2023-04-20T03:39:01.316Z,4.04
2023-04-20T03:41:28.212Z,4.08
2023-04-20T03:43:55.112Z,4.15
2023-04-20T03:46:23.247Z,4.25
2023-04-20T03:48:50.904Z,4.24
2023-04-20T03:51:18.013Z,4.15
2023-04-20T03:53:44.888Z,4.17
2023-04-20T03:56:11.881Z,4.23
2023-04-20T03:58:38.937Z,4.08
2023-04-20T04:01:10.637Z,4.07
2023-04-20T04:03:37.719Z,4.28
2023-04-20T04:06:05.530Z,4.28
2023-04-20T04:08:32.513Z,4.08
2023-04-20T04:11:00.656Z,4.05
2023-04-20T04:13:27.606Z,4.25
2023-04-20T04:15:54.542Z,4.28
2023-04-20T04:18:22.030Z,4.32
2023-04-20T04:20:49.256Z,4.16
2023-04-20T04:23:16.340Z,4.31
2023-04-20T04:25:43.381Z,4.22
2023-04-20T04:28:10.685Z,4.24
2023-04-20T04:30:37.630Z,4.36
2023-04-20T04:33:05.094Z,4.26
2023-04-20T04:35:33.363Z,4.28
2023-04-20T04:38:00.986Z,4.17
2023-04-20T04:40:27.997Z,4.29
2023-04-20T04:42:55.588Z,4.32
2023-04-20T04:45:25.252Z,4.23
2023-04-20T04:47:53.896Z,4.40
2023-04-20T04:50:22.157Z,4.59
2023-04-20T04:52:49.242Z,4.88
2023-04-20T04:55:17.215Z,4.89
2023-04-20T04:57:44.419Z,4.54
2023-04-20T05:00:12.718Z,4.42
2023-04-20T05:02:40.198Z,4.32
2023-04-20T05:05:10.074Z,4.43
2023-04-20T05:07:38.457Z,4.40
2023-04-20T05:10:06.995Z,4.44
2023-04-20T05:12:34.120Z,4.65
2023-04-20T05:15:01.086Z,4.74
2023-04-20T05:17:28.100Z,4.88
2023-04-20T05:19:55.044Z,4.96
2023-04-20T05:22:22.024Z,4.95
2023-04-20T05:24:48.985Z,5.05
2023-04-20T05:27:15.954Z,4.91
2023-04-20T05:29:42.848Z,5.10
2023-04-20T05:32:09.918Z,5.16
2023-04-20T05:34:36.863Z,5.25
2023-04-20T05:37:06.103Z,5.23
2023-04-20T05:39:33.178Z,5.04
2023-04-20T05:42:00.153Z,5.31
2023-04-20T05:44:27.166Z,5.56
2023-04-20T05:46:54.145Z,5.44
2023-04-20T05:49:21.513Z,5.55
2023-04-20T05:51:48.634Z,5.70
2023-04-20T05:54:15.652Z,5.84
2023-04-20T05:56:42.627Z,5.92
2023-04-20T05:59:10.029Z,5.93
2023-04-20T06:01:36.988Z,6.28
2023-04-20T06:04:04.339Z,6.01
2023-04-20T06:06:31.551Z,6.07
2023-04-20T06:08:59.338Z,6.31
2023-04-20T06:11:26.430Z,6.26
2023-04-20T06:13:53.403Z,6.08
2023-04-20T06:16:20.642Z,6.14
2023-04-20T06:18:47.618Z,6.31
2023-04-20T06:21:14.760Z,6.49
2023-04-20T06:23:42.458Z,6.44
2023-04-20T06:26:10.304Z,6.61
2023-04-20T06:28:38.005Z,6.63
2023-04-20T06:31:05.609Z,6.71
2023-04-20T06:33:32.580Z,6.93
2023-04-20T06:35:59.546Z,6.89
2023-04-20T06:38:26.834Z,6.91
2023-04-20T06:40:53.751Z,7.11
2023-04-20T06:43:20.929Z,7.04
2023-04-20T06:45:48.058Z,7.08
2023-04-20T06:48:30.806Z,7.10
2023-04-20T06:50:59.463Z,7.26
2023-04-20T06:53:26.535Z,7.15
2023-04-20T06:55:57.209Z,7.26
2023-04-20T06:58:24.276Z,7.23
2023-04-20T07:00:51.237Z,7.20
2023-04-20T07:03:19.331Z,7.58
2023-04-20T07:05:46.733Z,7.32
2023-04-20T07:08:15.897Z,7.36
2023-04-20T07:10:43.244Z,7.48
2023-04-20T07:13:10.204Z,7.74
2023-04-20T07:15:37.235Z,7.78
2023-04-20T07:18:04.295Z,8.16
2023-04-20T07:20:31.707Z,8.04
2023-04-20T07:22:58.639Z,8.22
2023-04-20T07:25:25.949Z,8.12
2023-04-20T07:27:53.036Z,8.33
2023-04-20T07:30:20.132Z,8.50
2023-04-20T07:32:47.350Z,8.27
2023-04-20T07:35:14.533Z,8.38
2023-04-20T07:37:41.834Z,8.60
2023-04-20T07:40:09.782Z,8.67
2023-04-20T07:42:37.451Z,8.34
2023-04-20T07:45:08.481Z,8.63
2023-04-20T07:47:36.225Z,8.57
2023-04-20T07:50:05.103Z,8.70
2023-04-20T07:52:32.391Z,8.92
2023-04-20T07:54:59.786Z,8.96
2023-04-20T07:57:28.440Z,8.82
2023-04-20T07:59:55.427Z,9.04
2023-04-20T08:02:22.563Z,8.99
2023-04-20T08:04:50.180Z,9.13
2023-04-20T08:07:17.944Z,9.10
2023-04-20T08:09:45.861Z,9.08
2023-04-20T08:12:13.087Z,9.24
2023-04-20T08:14:41.301Z,9.20
2023-04-20T08:17:08.390Z,9.40
2023-04-20T08:19:35.339Z,9.69
2023-04-20T08:22:03.456Z,9.99
2023-04-20T08:24:30.787Z,9.86
2023-04-20T08:26:59.256Z,9.99
2023-04-20T08:29:26.499Z,10.15
2023-04-20T08:31:53.474Z,9.93
2023-04-20T08:34:20.536Z,9.91
2023-04-20T08:36:47.735Z,9.76
2023-04-20T08:39:19.736Z,9.63
2023-04-20T08:41:47.948Z,9.38
2023-04-20T08:44:15.282Z,9.29
2023-04-20T08:46:47.411Z,9.31
2023-04-20T08:49:17.390Z,9.51
2023-04-20T08:51:46.438Z,9.89
2023-04-20T08:54:13.573Z,9.76
2023-04-20T08:56:44.679Z,9.97
2023-04-20T08:59:14.173Z,10.51
2023-04-20T09:01:44.968Z,10.80
2023-04-20T09:04:22.859Z,10.69
2023-04-20T09:06:53.277Z,11.41
2023-04-20T09:09:22.716Z,10.81
2023-04-20T09:12:10.303Z,10.35
2023-04-20T09:14:45.358Z,9.87
2023-04-20T09:17:14.725Z,10.19
2023-04-20T09:19:44.936Z,10.24
2023-04-20T09:22:12.636Z,10.39
2023-04-20T09:24:41.294Z,10.52
2023-04-20T09:27:19.170Z,10.41
2023-04-20T09:30:03.705Z,10.69
2023-04-20T09:32:31.111Z,11.17
2023-04-20T09:34:58.073Z,10.99
2023-04-20T09:37:25.653Z,10.76
2023-04-20T09:40:00.110Z,11.30
2023-04-20T09:42:29.077Z,11.39
2023-04-20T09:44:57.429Z,11.67
2023-04-20T09:47:26.684Z,11.87
2023-04-20T09:49:54.757Z,11.68
2023-04-20T09:52:23.398Z,12.09
2023-04-20T09:54:51.866Z,12.03
2023-04-20T09:57:19.860Z,11.59
2023-04-20T09:59:47.424Z,11.56
2023-04-20T10:02:14.924Z,11.45
2023-04-20T10:04:59.193Z,10.94
2023-04-20T10:07:28.316Z,10.85
2023-04-20T10:10:16.256Z,10.82
2023-04-20T10:12:56.116Z,11.02
2023-04-20T10:15:25.015Z,10.85
2023-04-20T10:17:53.446Z,11.60
2023-04-20T10:20:27.560Z,11.64
2023-04-20T10:23:10.425Z,11.49
2023-04-20T10:25:37.811Z,11.12
2023-04-20T10:28:09.476Z,11.05
2023-04-20T10:30:37.954Z,10.91
2023-04-20T10:33:11.361Z,10.75
2023-04-20T10:35:58.983Z,10.73
2023-04-20T10:38:30.417Z,10.62
2023-04-20T10:41:07.460Z,10.77
2023-04-20T10:43:35.510Z,11.07
2023-04-20T10:46:02.434Z,11.40
2023-04-20T10:48:29.497Z,11.35
2023-04-20T10:50:56.408Z,11.17
2023-04-20T10:53:24.203Z,11.07
2023-04-20T10:56:01.031Z,11.15
2023-04-20T10:58:28.228Z,11.02
2023-04-20T11:01:04.105Z,10.99
2023-04-20T11:03:34.346Z,10.91
2023-04-20T11:06:03.894Z,10.98
2023-04-20T11:08:39.866Z,11.05
2023-04-20T11:11:24.681Z,10.94
2023-04-20T11:13:51.997Z,10.74
2023-04-20T11:16:19.779Z,10.69
2023-04-20T11:18:55.768Z,10.84
2023-04-20T11:21:23.108Z,10.66
2023-04-20T11:23:50.647Z,10.96
2023-04-20T11:26:18.096Z,10.80
2023-04-20T11:28:55.586Z,10.77
2023-04-20T11:31:23.621Z,11.08
2023-04-20T11:33:50.849Z,11.07
2023-04-20T11:36:23.470Z,11.08
2023-04-20T11:38:51.441Z,10.72
2023-04-20T11:41:18.766Z,10.71
2023-04-20T11:43:46.323Z,10.22
2023-04-20T11:46:15.670Z,10.24
2023-04-20T11:48:43.231Z,10.41
2023-04-20T11:51:10.360Z,10.79
2023-04-20T11:53:38.012Z,10.33
2023-04-20T11:56:05.916Z,10.53
2023-04-20T11:58:33.001Z,10.58
2023-04-20T12:01:00.246Z,10.68
2023-04-20T12:03:27.721Z,10.81
2023-04-20T12:05:55.112Z,10.39
2023-04-20T12:08:23.993Z,10.31
2023-04-20T12:10:50.937Z,10.17
2023-04-20T12:13:17.865Z,9.97
2023-04-20T12:15:45.057Z,9.84
2023-04-20T12:18:12.067Z,9.77
2023-04-20T12:20:39.029Z,9.61
2023-04-20T12:23:06.036Z,9.33
2023-04-20T12:25:33.052Z,9.01
2023-04-20T12:28:01.352Z,9.01
2023-04-20T12:30:28.352Z,9.20
2023-04-20T12:32:55.827Z,9.58
2023-04-20T12:35:22.944Z,9.71
2023-04-20T12:37:50.065Z,9.72
2023-04-20T12:40:17.024Z,9.97
2023-04-20T12:42:43.996Z,9.89
2023-04-20T12:45:11.369Z,9.94
2023-04-20T12:47:38.315Z,9.83
2023-04-20T12:50:07.356Z,10.06
2023-04-20T12:52:34.604Z,10.29
2023-04-20T12:55:01.759Z,10.92
2023-04-20T12:57:28.705Z,11.45
2023-04-20T12:59:56.692Z,11.56
2023-04-20T13:02:23.716Z,11.59
2023-04-20T13:04:52.523Z,11.33
2023-04-20T13:07:19.517Z,11.12
2023-04-20T13:09:46.495Z,11.24
2023-04-20T13:12:13.548Z,10.80
2023-04-20T13:14:40.531Z,11.07
2023-04-20T13:17:07.615Z,11.03
2023-04-20T13:19:35.193Z,11.29
2023-04-20T13:22:02.089Z,11.48
2023-04-20T13:24:29.047Z,11.36
2023-04-20T13:26:56.697Z,11.32
2023-04-20T13:29:25.216Z,11.40
2023-04-20T13:31:52.296Z,11.11
2023-04-20T13:34:19.592Z,11.16
2023-04-20T13:36:47.258Z,10.97
2023-04-20T13:39:14.877Z,11.14
2023-04-20T13:41:41.862Z,10.87
2023-04-20T13:44:15.762Z,10.77
2023-04-20T13:46:45.008Z,10.69
2023-04-20T13:49:13.475Z,10.69
2023-04-20T13:51:40.991Z,10.50
2023-04-20T13:54:07.994Z,10.35
2023-04-20T13:56:35.178Z,9.96
2023-04-20T13:59:04.008Z,9.76
2023-04-20T14:01:31.536Z,9.88
2023-04-20T14:03:58.672Z,9.94
2023-04-20T14:06:26.445Z,10.03
2023-04-20T14:08:53.807Z,9.90
2023-04-20T14:11:20.705Z,9.93
2023-04-20T14:13:47.676Z,9.83
2023-04-20T14:16:14.860Z,9.69
2023-04-20T14:18:42.077Z,9.59
2023-04-20T14:21:09.338Z,9.74
2023-04-20T14:23:36.417Z,9.30
2023-04-20T14:26:03.995Z,9.43
2023-04-20T14:28:33.412Z,9.15
2023-04-20T14:31:04.459Z,9.10
2023-04-20T14:33:31.493Z,8.91
2023-04-20T14:35:58.379Z,8.92
2023-04-20T14:38:25.306Z,8.84
2023-04-20T14:40:52.489Z,8.61
2023-04-20T14:43:20.101Z,8.70
2023-04-20T14:45:47.120Z,8.69
2023-04-20T14:48:14.024Z,8.58
2023-04-20T14:50:42.349Z,8.59
2023-04-20T14:53:10.107Z,8.68
2023-04-20T14:55:37.134Z,8.44
2023-04-20T14:58:04.082Z,8.49
2023-04-20T15:00:31.148Z,8.51
2023-04-20T15:02:59.552Z,8.48
2023-04-20T15:05:28.070Z,8.43
2023-04-20T15:07:57.133Z,8.55
2023-04-20T15:10:24.453Z,8.52
2023-04-20T15:12:51.561Z,8.55
2023-04-20T15:15:18.643Z,8.37
2023-04-20T15:17:46.847Z,8.44
2023-04-20T15:20:17.054Z,8.41
2023-04-20T15:22:44.029Z,8.56
2023-04-20T15:25:11.175Z,8.62
2023-04-20T15:27:38.456Z,8.49
2023-04-20T15:30:06.578Z,8.67
2023-04-20T15:32:34.015Z,8.70
2023-04-20T15:35:01.345Z,8.79
2023-04-20T15:37:28.513Z,9.09
2023-04-20T15:39:55.940Z,8.96
2023-04-20T15:42:23.019Z,8.90
2023-04-20T15:44:49.941Z,9.03
2023-04-20T15:47:16.830Z,9.19
2023-04-20T15:49:44.088Z,9.23
2023-04-20T15:52:11.161Z,9.25
2023-04-20T15:54:38.495Z,9.45
2023-04-20T15:57:05.450Z,9.14
2023-04-20T15:59:32.825Z,9.28
2023-04-20T16:01:59.993Z,9.40
2023-04-20T16:04:27.065Z,9.50
2023-04-20T16:06:54.390Z,9.46
2023-04-20T16:09:23.400Z,9.50
2023-04-20T16:11:50.862Z,9.49
2023-04-20T16:14:18.072Z,9.76
2023-04-20T16:16:45.402Z,9.57
2023-04-20T16:19:13.766Z,9.78
2023-04-20T16:21:41.027Z,9.73
2023-04-20T16:24:07.937Z,9.35
2023-04-20T16:26:34.893Z,9.54
2023-04-20T16:29:02.066Z,9.57
2023-04-20T16:31:29.894Z,9.50
2023-04-20T16:33:58.591Z,9.62
2023-04-20T16:36:26.678Z,9.75
2023-04-20T16:38:53.668Z,9.38
2023-04-20T16:41:20.847Z,9.27
2023-04-20T16:43:48.121Z,9.41
2023-04-20T16:46:16.365Z,9.64
2023-04-20T16:48:44.097Z,9.72
2023-04-20T16:51:11.161Z,9.55
2023-04-20T16:53:38.069Z,9.04
2023-04-20T16:56:05.698Z,8.81
2023-04-20T16:58:32.674Z,8.90
2023-04-20T17:00:59.737Z,8.75
2023-04-20T17:03:26.952Z,8.76
2023-04-20T17:05:54.044Z,8.99
2023-04-20T17:08:21.842Z,8.91
2023-04-20T17:10:48.756Z,9.02
2023-04-20T17:13:15.809Z,9.18
2023-04-20T17:15:45.054Z,9.25
2023-04-20T17:18:12.242Z,9.50
2023-04-20T17:20:39.163Z,9.47
2023-04-20T17:23:06.084Z,9.52
2023-04-20T17:25:33.146Z,9.85
2023-04-20T17:28:00.172Z,9.96
2023-04-20T17:30:27.105Z,9.75
2023-04-20T17:32:54.355Z,9.88
2023-04-20T17:35:22.602Z,9.51
2023-04-20T17:37:49.650Z,9.58
2023-04-20T17:40:16.576Z,8.92
2023-04-20T17:42:43.549Z,9.04
2023-04-20T17:45:11.716Z,9.47
2023-04-20T17:47:38.668Z,9.86
2023-04-20T17:50:06.860Z,9.91
2023-04-20T17:52:33.792Z,9.58
2023-04-20T17:55:00.785Z,9.43
2023-04-20T17:57:28.568Z,9.58
2023-04-20T17:59:55.691Z,9.56
2023-04-20T18:02:24.988Z,8.98
2023-04-20T18:04:52.462Z,8.86
2023-04-20T18:07:19.556Z,8.99
2023-04-20T18:09:46.530Z,9.01
2023-04-20T18:12:13.528Z,9.44
2023-04-20T18:14:41.175Z,9.40
2023-04-20T18:17:08.604Z,9.25
2023-04-20T18:19:35.575Z,9.29
2023-04-20T18:22:02.632Z,9.21
2023-04-20T18:24:29.768Z,8.91
2023-04-20T18:26:56.761Z,8.69
2023-04-20T18:29:23.771Z,8.64
2023-04-20T18:31:53.379Z,8.78
2023-04-20T18:34:20.546Z,8.82
2023-04-20T18:36:47.752Z,8.68
2023-04-20T18:39:15.108Z,8.61
2023-04-20T18:41:42.201Z,8.78
2023-04-20T18:44:09.116Z,8.80
2023-04-20T18:46:36.183Z,9.03
2023-04-20T18:49:03.198Z,8.92
2023-04-20T18:51:32.104Z,8.87
2023-04-20T18:53:59.106Z,8.76
2023-04-20T18:56:26.084Z,8.64
2023-04-20T18:58:53.046Z,8.50
2023-04-20T19:01:20.157Z,8.59
2023-04-20T19:03:48.215Z,8.73
2023-04-20T19:06:15.406Z,8.66
2023-04-20T19:08:42.370Z,8.67
2023-04-20T19:11:09.321Z,8.70
2023-04-20T19:13:36.539Z,8.75
2023-04-20T19:16:04.656Z,8.78
2023-04-20T19:18:31.671Z,8.85
2023-04-20T19:20:58.636Z,8.83
2023-04-20T19:23:25.732Z,8.86
2023-04-20T19:25:52.669Z,8.89
2023-04-20T19:28:19.655Z,8.90
2023-04-20T19:30:46.731Z,8.79
2023-04-20T19:33:13.737Z,8.68
2023-04-20T19:35:43.452Z,8.70
2023-04-20T19:38:10.333Z,8.73
2023-04-20T19:40:37.333Z,8.80
2023-04-20T19:43:04.356Z,8.77
2023-04-20T19:45:31.296Z,8.88
2023-04-20T19:47:58.309Z,8.69
2023-04-20T19:50:25.503Z,8.80
2023-04-20T19:52:52.434Z,8.75
2023-04-20T19:55:19.374Z,8.57
2023-04-20T19:57:46.279Z,8.55
2023-04-20T20:00:13.527Z,8.46
2023-04-20T20:02:41.537Z,8.35
2023-04-20T20:05:09.384Z,8.42
2023-04-20T20:07:37.008Z,8.42
2023-04-20T20:10:04.592Z,8.33
2023-04-20T20:12:31.613Z,8.41
2023-04-20T20:14:59.494Z,8.35
2023-04-20T20:17:26.522Z,8.42
2023-04-20T20:19:55.780Z,8.21
2023-04-20T20:22:22.943Z,8.30
2023-04-20T20:24:54.056Z,8.29
2023-04-20T20:27:21.669Z,8.27
2023-04-20T20:29:49.039Z,8.11
2023-04-20T20:32:15.996Z,8.24
2023-04-20T20:34:43.208Z,8.08
2023-04-20T20:37:12.777Z,8.10
2023-04-20T20:39:39.798Z,7.95
2023-04-20T20:42:08.954Z,7.83
2023-04-20T20:44:39.720Z,7.78
2023-04-20T20:47:06.833Z,7.69
2023-04-20T20:49:33.963Z,7.43
2023-04-20T20:52:02.313Z,7.50
2023-04-20T20:54:29.478Z,7.35
2023-04-20T20:56:57.555Z,7.58
2023-04-20T20:59:24.599Z,7.34
2023-04-20T21:01:51.686Z,7.43
2023-04-20T21:04:18.738Z,7.57
2023-04-20T21:06:45.677Z,7.51
2023-04-20T21:09:14.707Z,7.26
2023-04-20T21:11:41.615Z,7.05
2023-04-20T21:14:08.553Z,6.99
2023-04-20T21:16:35.463Z,6.78
2023-04-20T21:19:02.480Z,6.58
2023-04-20T21:21:29.346Z,6.71
2023-04-20T21:23:56.238Z,6.59
2023-04-20T21:26:24.252Z,6.47
2023-04-20T21:28:51.144Z,6.30
2023-04-20T21:31:18.177Z,6.39
2023-04-20T21:33:45.160Z,6.61
2023-04-20T21:36:12.088Z,6.37
2023-04-20T21:38:39.359Z,6.30
2023-04-20T21:41:06.327Z,6.28
2023-04-20T21:43:33.235Z,6.38
2023-04-20T21:46:00.226Z,6.52
2023-04-20T21:48:27.130Z,6.42
2023-04-20T21:50:54.000Z,6.61
2023-04-20T21:53:21.235Z,6.54
2023-04-20T21:55:48.161Z,6.44
2023-04-20T21:58:15.789Z,6.46
2023-04-20T22:00:42.649Z,6.30
2023-04-20T22:03:09.739Z,6.38
2023-04-20T22:05:36.840Z,6.35
2023-04-20T22:08:03.916Z,6.42
2023-04-20T22:10:30.918Z,6.22
2023-04-20T22:12:57.907Z,6.02
2023-04-20T22:15:26.149Z,5.91
2023-04-20T22:17:53.053Z,5.77
2023-04-20T22:20:20.092Z,5.67
2023-04-20T22:22:47.238Z,5.69
2023-04-20T22:25:14.250Z,5.57
2023-04-20T22:27:41.305Z,5.54
2023-04-20T22:30:09.686Z,5.13
2023-04-20T22:32:38.414Z,5.06
2023-04-20T22:35:05.927Z,5.25
2023-04-20T22:37:32.856Z,5.25
2023-04-20T22:39:59.740Z,5.27
2023-04-20T22:42:26.813Z,5.49
2023-04-20T22:44:53.787Z,5.56
2023-04-20T22:47:20.837Z,5.58
2023-04-20T22:49:48.994Z,5.52
2023-04-20T22:52:16.070Z,5.49
2023-04-20T22:54:47.888Z,5.34
2023-04-20T22:57:18.246Z,5.47
2023-04-20T22:59:45.550Z,5.31
2023-04-20T23:02:12.766Z,5.36
2023-04-20T23:04:40.131Z,5.43
2023-04-20T23:07:08.206Z,5.41
2023-04-20T23:09:39.791Z,5.51
2023-04-20T23:12:11.795Z,5.52
2023-04-20T23:14:42.519Z,5.51
2023-04-20T23:17:10.582Z,5.41
2023-04-20T23:19:38.465Z,5.48
2023-04-20T23:22:08.798Z,5.32
2023-04-20T23:24:36.298Z,5.16
2023-04-20T23:27:03.471Z,4.92
2023-04-20T23:29:30.398Z,4.62
2023-04-20T23:31:57.315Z,4.58
2023-04-20T23:34:24.292Z,4.46
2023-04-20T23:36:53.833Z,4.40
2023-04-20T23:39:21.415Z,4.48
2023-04-20T23:41:48.590Z,4.36
2023-04-20T23:44:15.517Z,4.53
2023-04-20T23:46:42.397Z,4.47
2023-04-20T23:49:09.398Z,4.38
2023-04-20T23:51:37.489Z,4.46
2023-04-20T23:54:04.492Z,4.50
2023-04-20T23:56:31.487Z,4.66
2023-04-20T23:58:59.341Z,4.59
